sensor_id;sensor_type;location;lat;lon;timestamp;P1;durP1;ratioP1;P2;durP2;ratioP2
17510;SDS011;8873;48.818;9.422;2022-09-12T00:01:53;20.05;;;10.23;;
17510;SDS011;8873;48.818;9.422;2022-09-12T00:04:21;18.27;;;9.98;;
17510;SDS011;8873;48.818;9.422;2022-09-12T00:06:48;15.90;;;10.38;;
17510;SDS011;8873;48.818;9.422;2022-09-12T00:09:16;22.23;;;10.10;;
17510;SDS011;8873;48.818;9.422;2022-09-12T00:11:45;16.63;;;10.23;;
17510;SDS011;8873;48.818;9.422;2022-09-12T00:14:13;25.27;;;11.18;;
17510;SDS011;8873;48.818;9.422;2022-09-12T00:16:41;16.50;;;10.30;;
17510;SDS011;8873;48.818;9.422;2022-09-12T00:19:10;17.70;;;9.75;;
17510;SDS011;8873;48.818;9.422;2022-09-12T00:21:38;19.75;;;10.45;;
17510;SDS011;8873;48.818;9.422;2022-09-12T00:24:05;18.00;;;10.52;;
17510;SDS011;8873;48.818;9.422;2022-09-12T00:26:33;18.70;;;10.55;;
17510;SDS011;8873;48.818;9.422;2022-09-12T00:29:02;19.98;;;11.10;;
17510;SDS011;8873;48.818;9.422;2022-09-12T00:31:30;16.45;;;10.07;;
17510;SDS011;8873;48.818;9.422;2022-09-12T00:33:58;18.85;;;10.93;;
17510;SDS011;8873;48.818;9.422;2022-09-12T00:36:27;20.65;;;10.60;;
17510;SDS011;8873;48.818;9.422;2022-09-12T00:38:55;19.02;;;9.85;;
17510;SDS011;8873;48.818;9.422;2022-09-12T00:41:26;19.10;;;9.27;;
17510;SDS011;8873;48.818;9.422;2022-09-12T00:43:54;15.65;;;10.27;;
17510;SDS011;8873;48.818;9.422;2022-09-12T00:46:29;18.27;;;9.75;;
17510;SDS011;8873;48.818;9.422;2022-09-12T00:48:58;18.55;;;10.40;;
17510;SDS011;8873;48.818;9.422;2022-09-12T00:51:26;15.68;;;9.77;;
17510;SDS011;8873;48.818;9.422;2022-09-12T00:53:55;21.05;;;10.85;;
17510;SDS011;8873;48.818;9.422;2022-09-12T00:56:24;19.70;;;10.75;;
17510;SDS011;8873;48.818;9.422;2022-09-12T00:58:54;16.27;;;9.85;;
17510;SDS011;8873;48.818;9.422;2022-09-12T01:01:24;18.50;;;10.80;;
17510;SDS011;8873;48.818;9.422;2022-09-12T01:03:58;21.77;;;11.52;;
17510;SDS011;8873;48.818;9.422;2022-09-12T01:06:27;20.73;;;9.85;;
17510;SDS011;8873;48.818;9.422;2022-09-12T01:08:55;19.23;;;10.60;;
17510;SDS011;8873;48.818;9.422;2022-09-12T01:11:24;17.48;;;9.77;;
17510;SDS011;8873;48.818;9.422;2022-09-12T01:13:52;21.73;;;10.52;;
17510;SDS011;8873;48.818;9.422;2022-09-12T01:16:20;22.02;;;10.38;;
17510;SDS011;8873;48.818;9.422;2022-09-12T01:18:52;20.85;;;10.63;;
17510;SDS011;8873;48.818;9.422;2022-09-12T01:21:24;20.42;;;11.55;;
17510;SDS011;8873;48.818;9.422;2022-09-12T01:26:50;19.13;;;10.60;;
17510;SDS011;8873;48.818;9.422;2022-09-12T01:29:31;23.90;;;11.52;;
17510;SDS011;8873;48.818;9.422;2022-09-12T01:32:03;23.48;;;11.25;;
17510;SDS011;8873;48.818;9.422;2022-09-12T01:34:35;19.25;;;10.07;;
17510;SDS011;8873;48.818;9.422;2022-09-12T01:37:07;21.48;;;11.23;;
17510;SDS011;8873;48.818;9.422;2022-09-12T01:39:38;20.48;;;11.75;;
17510;SDS011;8873;48.818;9.422;2022-09-12T01:42:09;20.15;;;10.57;;
17510;SDS011;8873;48.818;9.422;2022-09-12T01:44:44;19.67;;;11.55;;
17510;SDS011;8873;48.818;9.422;2022-09-12T01:47:16;19.90;;;11.20;;
17510;SDS011;8873;48.818;9.422;2022-09-12T01:49:48;20.55;;;11.05;;
17510;SDS011;8873;48.818;9.422;2022-09-12T01:52:19;20.83;;;10.75;;
17510;SDS011;8873;48.818;9.422;2022-09-12T01:54:49;18.35;;;11.13;;
17510;SDS011;8873;48.818;9.422;2022-09-12T01:57:19;17.40;;;11.23;;
17510;SDS011;8873;48.818;9.422;2022-09-12T01:59:48;20.35;;;11.57;;
17510;SDS011;8873;48.818;9.422;2022-09-12T02:02:19;21.45;;;11.70;;
17510;SDS011;8873;48.818;9.422;2022-09-12T02:04:50;50.80;;;13.07;;
17510;SDS011;8873;48.818;9.422;2022-09-12T02:07:19;23.23;;;12.00;;
17510;SDS011;8873;48.818;9.422;2022-09-12T02:09:48;24.90;;;12.32;;
17510;SDS011;8873;48.818;9.422;2022-09-12T02:12:18;22.65;;;11.70;;
17510;SDS011;8873;48.818;9.422;2022-09-12T02:14:47;25.58;;;12.30;;
17510;SDS011;8873;48.818;9.422;2022-09-12T02:17:17;23.95;;;12.43;;
17510;SDS011;8873;48.818;9.422;2022-09-12T02:19:48;22.70;;;12.00;;
17510;SDS011;8873;48.818;9.422;2022-09-12T02:22:18;27.88;;;12.65;;
17510;SDS011;8873;48.818;9.422;2022-09-12T02:24:48;28.02;;;12.73;;
17510;SDS011;8873;48.818;9.422;2022-09-12T02:27:17;25.20;;;12.88;;
17510;SDS011;8873;48.818;9.422;2022-09-12T02:29:47;24.02;;;11.80;;
17510;SDS011;8873;48.818;9.422;2022-09-12T02:32:17;26.10;;;12.82;;
17510;SDS011;8873;48.818;9.422;2022-09-12T02:34:50;28.27;;;12.00;;
17510;SDS011;8873;48.818;9.422;2022-09-12T02:37:20;28.77;;;12.63;;
17510;SDS011;8873;48.818;9.422;2022-09-12T02:39:51;36.80;;;12.52;;
17510;SDS011;8873;48.818;9.422;2022-09-12T02:42:20;30.42;;;11.82;;
17510;SDS011;8873;48.818;9.422;2022-09-12T02:44:48;26.60;;;10.93;;
17510;SDS011;8873;48.818;9.422;2022-09-12T02:47:17;21.80;;;10.88;;
17510;SDS011;8873;48.818;9.422;2022-09-12T02:49:45;52.92;;;11.85;;
17510;SDS011;8873;48.818;9.422;2022-09-12T02:52:14;32.70;;;10.38;;
17510;SDS011;8873;48.818;9.422;2022-09-12T02:54:42;55.97;;;12.57;;
17510;SDS011;8873;48.818;9.422;2022-09-12T02:57:14;44.13;;;11.50;;
17510;SDS011;8873;48.818;9.422;2022-09-12T02:59:48;38.95;;;11.18;;
17510;SDS011;8873;48.818;9.422;2022-09-12T03:02:21;42.63;;;12.27;;
17510;SDS011;8873;48.818;9.422;2022-09-12T03:04:53;61.47;;;13.35;;
17510;SDS011;8873;48.818;9.422;2022-09-12T03:07:27;31.55;;;12.43;;
17510;SDS011;8873;48.818;9.422;2022-09-12T03:10:00;32.92;;;12.13;;
17510;SDS011;8873;48.818;9.422;2022-09-12T03:12:34;34.65;;;11.90;;
17510;SDS011;8873;48.818;9.422;2022-09-12T03:15:13;26.27;;;11.85;;
17510;SDS011;8873;48.818;9.422;2022-09-12T03:17:52;38.05;;;11.68;;
17510;SDS011;8873;48.818;9.422;2022-09-12T03:20:25;33.20;;;12.10;;
17510;SDS011;8873;48.818;9.422;2022-09-12T03:22:56;40.88;;;11.27;;
17510;SDS011;8873;48.818;9.422;2022-09-12T03:25:26;67.90;;;12.15;;
17510;SDS011;8873;48.818;9.422;2022-09-12T03:27:55;45.28;;;11.27;;
17510;SDS011;8873;48.818;9.422;2022-09-12T03:30:25;42.72;;;11.13;;
17510;SDS011;8873;48.818;9.422;2022-09-12T03:32:53;24.63;;;10.45;;
17510;SDS011;8873;48.818;9.422;2022-09-12T03:35:21;35.42;;;11.70;;
17510;SDS011;8873;48.818;9.422;2022-09-12T03:37:49;60.28;;;11.68;;
17510;SDS011;8873;48.818;9.422;2022-09-12T03:40:19;37.97;;;11.73;;
17510;SDS011;8873;48.818;9.422;2022-09-12T03:42:46;79.43;;;12.05;;
17510;SDS011;8873;48.818;9.422;2022-09-12T03:45:14;28.85;;;11.05;;
17510;SDS011;8873;48.818;9.422;2022-09-12T03:47:41;40.03;;;11.43;;
17510;SDS011;8873;48.818;9.422;2022-09-12T03:50:09;39.63;;;11.95;;
17510;SDS011;8873;48.818;9.422;2022-09-12T03:52:37;82.93;;;13.48;;
17510;SDS011;8873;48.818;9.422;2022-09-12T03:55:05;70.32;;;12.77;;
17510;SDS011;8873;48.818;9.422;2022-09-12T03:57:34;85.00;;;14.35;;
17510;SDS011;8873;48.818;9.422;2022-09-12T04:00:02;26.63;;;11.00;;
17510;SDS011;8873;48.818;9.422;2022-09-12T04:02:30;62.70;;;12.73;;
17510;SDS011;8873;48.818;9.422;2022-09-12T04:04:57;27.77;;;10.90;;
17510;SDS011;8873;48.818;9.422;2022-09-12T04:07:25;26.52;;;10.43;;
17510;SDS011;8873;48.818;9.422;2022-09-12T04:09:53;23.40;;;9.88;;
17510;SDS011;8873;48.818;9.422;2022-09-12T04:12:21;18.60;;;9.88;;
17510;SDS011;8873;48.818;9.422;2022-09-12T04:14:50;49.15;;;10.82;;
17510;SDS011;8873;48.818;9.422;2022-09-12T04:17:18;67.00;;;11.20;;
17510;SDS011;8873;48.818;9.422;2022-09-12T04:19:45;94.93;;;12.82;;
17510;SDS011;8873;48.818;9.422;2022-09-12T04:22:13;62.42;;;12.23;;
17510;SDS011;8873;48.818;9.422;2022-09-12T04:24:40;39.47;;;11.93;;
17510;SDS011;8873;48.818;9.422;2022-09-12T04:27:08;25.23;;;12.05;;
17510;SDS011;8873;48.818;9.422;2022-09-12T04:29:35;25.85;;;11.35;;
17510;SDS011;8873;48.818;9.422;2022-09-12T04:32:04;23.83;;;11.35;;
17510;SDS011;8873;48.818;9.422;2022-09-12T04:34:32;94.53;;;13.77;;
17510;SDS011;8873;48.818;9.422;2022-09-12T04:36:59;26.85;;;11.30;;
17510;SDS011;8873;48.818;9.422;2022-09-12T04:39:27;20.95;;;11.90;;
17510;SDS011;8873;48.818;9.422;2022-09-12T04:41:54;70.80;;;15.55;;
17510;SDS011;8873;48.818;9.422;2022-09-12T04:44:22;84.15;;;14.02;;
17510;SDS011;8873;48.818;9.422;2022-09-12T04:46:49;29.20;;;11.25;;
17510;SDS011;8873;48.818;9.422;2022-09-12T04:49:19;28.63;;;10.60;;
17510;SDS011;8873;48.818;9.422;2022-09-12T04:51:46;31.60;;;9.90;;
17510;SDS011;8873;48.818;9.422;2022-09-12T04:54:14;36.05;;;10.55;;
17510;SDS011;8873;48.818;9.422;2022-09-12T04:56:45;25.30;;;10.18;;
17510;SDS011;8873;48.818;9.422;2022-09-12T04:59:13;30.48;;;10.93;;
17510;SDS011;8873;48.818;9.422;2022-09-12T05:01:41;26.50;;;10.25;;
17510;SDS011;8873;48.818;9.422;2022-09-12T05:04:09;26.10;;;9.98;;
17510;SDS011;8873;48.818;9.422;2022-09-12T05:06:39;25.85;;;9.85;;
17510;SDS011;8873;48.818;9.422;2022-09-12T05:09:09;22.67;;;9.45;;
17510;SDS011;8873;48.818;9.422;2022-09-12T05:11:37;16.02;;;9.23;;
17510;SDS011;8873;48.818;9.422;2022-09-12T05:14:26;25.83;;;10.38;;
17510;SDS011;8873;48.818;9.422;2022-09-12T05:16:53;19.92;;;9.30;;
17510;SDS011;8873;48.818;9.422;2022-09-12T05:19:25;22.27;;;9.95;;
17510;SDS011;8873;48.818;9.422;2022-09-12T05:21:53;24.83;;;10.63;;
17510;SDS011;8873;48.818;9.422;2022-09-12T05:24:24;17.92;;;9.48;;
17510;SDS011;8873;48.818;9.422;2022-09-12T05:26:52;28.73;;;10.40;;
17510;SDS011;8873;48.818;9.422;2022-09-12T05:29:20;27.75;;;9.60;;
17510;SDS011;8873;48.818;9.422;2022-09-12T05:31:47;47.95;;;11.07;;
17510;SDS011;8873;48.818;9.422;2022-09-12T05:34:16;27.13;;;11.40;;
17510;SDS011;8873;48.818;9.422;2022-09-12T05:36:44;25.92;;;11.13;;
17510;SDS011;8873;48.818;9.422;2022-09-12T05:39:16;44.78;;;12.90;;
17510;SDS011;8873;48.818;9.422;2022-09-12T05:41:43;30.08;;;11.48;;
17510;SDS011;8873;48.818;9.422;2022-09-12T05:44:11;23.90;;;10.82;;
17510;SDS011;8873;48.818;9.422;2022-09-12T05:46:40;18.92;;;10.60;;
17510;SDS011;8873;48.818;9.422;2022-09-12T05:49:09;25.48;;;10.45;;
17510;SDS011;8873;48.818;9.422;2022-09-12T05:51:38;45.45;;;11.15;;
17510;SDS011;8873;48.818;9.422;2022-09-12T05:54:06;17.95;;;10.40;;
17510;SDS011;8873;48.818;9.422;2022-09-12T05:56:37;20.98;;;10.68;;
17510;SDS011;8873;48.818;9.422;2022-09-12T05:59:05;20.52;;;11.27;;
17510;SDS011;8873;48.818;9.422;2022-09-12T06:01:33;20.25;;;11.88;;
17510;SDS011;8873;48.818;9.422;2022-09-12T06:04:02;21.15;;;11.82;;
17510;SDS011;8873;48.818;9.422;2022-09-12T06:06:30;24.55;;;12.23;;
17510;SDS011;8873;48.818;9.422;2022-09-12T06:08:58;19.80;;;11.80;;
17510;SDS011;8873;48.818;9.422;2022-09-12T06:11:28;20.17;;;12.00;;
17510;SDS011;8873;48.818;9.422;2022-09-12T06:13:57;25.92;;;11.82;;
17510;SDS011;8873;48.818;9.422;2022-09-12T06:16:25;20.90;;;11.77;;
17510;SDS011;8873;48.818;9.422;2022-09-12T06:18:54;19.13;;;11.52;;
17510;SDS011;8873;48.818;9.422;2022-09-12T06:21:22;19.75;;;11.63;;
17510;SDS011;8873;48.818;9.422;2022-09-12T06:23:52;20.52;;;11.60;;
17510;SDS011;8873;48.818;9.422;2022-09-12T06:26:21;19.83;;;11.43;;
17510;SDS011;8873;48.818;9.422;2022-09-12T06:28:51;18.63;;;11.00;;
17510;SDS011;8873;48.818;9.422;2022-09-12T06:31:21;18.17;;;10.65;;
17510;SDS011;8873;48.818;9.422;2022-09-12T06:33:51;20.55;;;10.98;;
17510;SDS011;8873;48.818;9.422;2022-09-12T06:36:19;23.02;;;10.98;;
17510;SDS011;8873;48.818;9.422;2022-09-12T06:38:53;18.70;;;10.98;;
17510;SDS011;8873;48.818;9.422;2022-09-12T06:41:22;17.50;;;10.13;;
17510;SDS011;8873;48.818;9.422;2022-09-12T06:43:50;15.30;;;9.43;;
17510;SDS011;8873;48.818;9.422;2022-09-12T06:46:18;20.30;;;9.77;;
17510;SDS011;8873;48.818;9.422;2022-09-12T06:48:47;18.92;;;10.13;;
17510;SDS011;8873;48.818;9.422;2022-09-12T06:51:15;17.23;;;9.05;;
17510;SDS011;8873;48.818;9.422;2022-09-12T06:53:43;16.80;;;10.18;;
17510;SDS011;8873;48.818;9.422;2022-09-12T06:56:12;16.48;;;9.65;;
17510;SDS011;8873;48.818;9.422;2022-09-12T06:58:40;14.23;;;9.52;;
17510;SDS011;8873;48.818;9.422;2022-09-12T07:01:09;14.00;;;9.27;;
17510;SDS011;8873;48.818;9.422;2022-09-12T07:03:37;14.85;;;9.15;;
17510;SDS011;8873;48.818;9.422;2022-09-12T07:06:07;14.40;;;9.30;;
17510;SDS011;8873;48.818;9.422;2022-09-12T07:08:35;16.80;;;9.43;;
17510;SDS011;8873;48.818;9.422;2022-09-12T07:11:10;16.35;;;9.18;;
17510;SDS011;8873;48.818;9.422;2022-09-12T07:13:38;17.60;;;9.50;;
17510;SDS011;8873;48.818;9.422;2022-09-12T07:16:07;16.52;;;9.57;;
17510;SDS011;8873;48.818;9.422;2022-09-12T07:18:35;14.77;;;8.98;;
17510;SDS011;8873;48.818;9.422;2022-09-12T07:21:05;13.98;;;8.88;;
17510;SDS011;8873;48.818;9.422;2022-09-12T07:23:33;14.68;;;8.43;;
17510;SDS011;8873;48.818;9.422;2022-09-12T07:26:01;13.05;;;8.48;;
17510;SDS011;8873;48.818;9.422;2022-09-12T07:28:29;13.32;;;8.45;;
17510;SDS011;8873;48.818;9.422;2022-09-12T07:30:57;20.40;;;8.98;;
17510;SDS011;8873;48.818;9.422;2022-09-12T07:33:30;16.58;;;8.18;;
17510;SDS011;8873;48.818;9.422;2022-09-12T07:35:59;15.55;;;8.18;;
17510;SDS011;8873;48.818;9.422;2022-09-12T07:38:27;14.48;;;7.85;;
17510;SDS011;8873;48.818;9.422;2022-09-12T07:40:56;13.77;;;8.50;;
17510;SDS011;8873;48.818;9.422;2022-09-12T07:43:26;13.10;;;8.25;;
17510;SDS011;8873;48.818;9.422;2022-09-12T07:45:54;11.13;;;7.63;;
17510;SDS011;8873;48.818;9.422;2022-09-12T07:48:21;15.43;;;8.43;;
17510;SDS011;8873;48.818;9.422;2022-09-12T07:50:56;12.18;;;8.23;;
17510;SDS011;8873;48.818;9.422;2022-09-12T07:53:24;12.80;;;7.20;;
17510;SDS011;8873;48.818;9.422;2022-09-12T07:55:52;11.18;;;7.55;;
17510;SDS011;8873;48.818;9.422;2022-09-12T07:58:22;11.05;;;7.15;;
17510;SDS011;8873;48.818;9.422;2022-09-12T08:00:49;9.68;;;7.22;;
17510;SDS011;8873;48.818;9.422;2022-09-12T08:03:17;13.43;;;7.38;;
17510;SDS011;8873;48.818;9.422;2022-09-12T08:05:45;10.65;;;7.28;;
17510;SDS011;8873;48.818;9.422;2022-09-12T08:08:13;10.57;;;7.28;;
17510;SDS011;8873;48.818;9.422;2022-09-12T08:10:40;10.32;;;6.95;;
17510;SDS011;8873;48.818;9.422;2022-09-12T08:13:08;10.23;;;7.00;;
17510;SDS011;8873;48.818;9.422;2022-09-12T08:15:37;8.68;;;6.68;;
17510;SDS011;8873;48.818;9.422;2022-09-12T08:18:05;11.00;;;7.00;;
17510;SDS011;8873;48.818;9.422;2022-09-12T08:20:32;11.02;;;7.13;;
17510;SDS011;8873;48.818;9.422;2022-09-12T08:23:00;8.73;;;6.22;;
17510;SDS011;8873;48.818;9.422;2022-09-12T08:25:28;9.85;;;6.93;;
17510;SDS011;8873;48.818;9.422;2022-09-12T08:27:57;8.77;;;5.70;;
17510;SDS011;8873;48.818;9.422;2022-09-12T08:30:26;8.25;;;6.47;;
17510;SDS011;8873;48.818;9.422;2022-09-12T08:32:56;7.75;;;6.47;;
17510;SDS011;8873;48.818;9.422;2022-09-12T08:35:23;9.68;;;5.70;;
17510;SDS011;8873;48.818;9.422;2022-09-12T08:37:51;7.93;;;5.88;;
17510;SDS011;8873;48.818;9.422;2022-09-12T08:40:18;5.90;;;5.28;;
17510;SDS011;8873;48.818;9.422;2022-09-12T08:42:50;5.35;;;4.85;;
17510;SDS011;8873;48.818;9.422;2022-09-12T08:45:20;5.28;;;4.78;;
17510;SDS011;8873;48.818;9.422;2022-09-12T08:47:49;7.05;;;5.05;;
17510;SDS011;8873;48.818;9.422;2022-09-12T08:50:19;5.45;;;4.68;;
17510;SDS011;8873;48.818;9.422;2022-09-12T08:52:49;5.80;;;5.28;;
17510;SDS011;8873;48.818;9.422;2022-09-12T08:55:23;10.18;;;4.82;;
17510;SDS011;8873;48.818;9.422;2022-09-12T08:57:51;6.75;;;5.10;;
17510;SDS011;8873;48.818;9.422;2022-09-12T09:00:19;6.35;;;4.82;;
17510;SDS011;8873;48.818;9.422;2022-09-12T09:02:55;6.47;;;4.25;;
17510;SDS011;8873;48.818;9.422;2022-09-12T09:05:31;5.65;;;3.90;;
17510;SDS011;8873;48.818;9.422;2022-09-12T09:08:12;4.60;;;4.20;;
17510;SDS011;8873;48.818;9.422;2022-09-12T09:10:47;5.80;;;3.72;;
17510;SDS011;8873;48.818;9.422;2022-09-12T09:13:26;3.95;;;3.55;;
17510;SDS011;8873;48.818;9.422;2022-09-12T09:16:17;4.70;;;3.50;;
17510;SDS011;8873;48.818;9.422;2022-09-12T09:18:47;3.63;;;3.17;;
17510;SDS011;8873;48.818;9.422;2022-09-12T09:21:19;3.67;;;3.38;;
17510;SDS011;8873;48.818;9.422;2022-09-12T09:23:48;3.42;;;3.13;;
17510;SDS011;8873;48.818;9.422;2022-09-12T09:26:18;5.05;;;2.85;;
17510;SDS011;8873;48.818;9.422;2022-09-12T09:28:53;5.10;;;2.67;;
17510;SDS011;8873;48.818;9.422;2022-09-12T09:31:27;3.65;;;2.95;;
17510;SDS011;8873;48.818;9.422;2022-09-12T09:33:57;3.33;;;3.13;;
17510;SDS011;8873;48.818;9.422;2022-09-12T09:36:30;7.93;;;2.95;;
17510;SDS011;8873;48.818;9.422;2022-09-12T09:39:01;3.83;;;2.95;;
17510;SDS011;8873;48.818;9.422;2022-09-12T09:41:36;3.10;;;2.90;;
17510;SDS011;8873;48.818;9.422;2022-09-12T09:44:09;2.80;;;2.63;;
17510;SDS011;8873;48.818;9.422;2022-09-12T09:46:36;3.13;;;2.83;;
17510;SDS011;8873;48.818;9.422;2022-09-12T09:49:04;3.05;;;2.60;;
17510;SDS011;8873;48.818;9.422;2022-09-12T09:51:35;3.20;;;2.90;;
17510;SDS011;8873;48.818;9.422;2022-09-12T09:54:04;3.33;;;2.50;;
17510;SDS011;8873;48.818;9.422;2022-09-12T09:56:38;2.40;;;2.30;;
17510;SDS011;8873;48.818;9.422;2022-09-12T09:59:08;2.55;;;2.45;;
17510;SDS011;8873;48.818;9.422;2022-09-12T10:01:36;3.00;;;2.63;;
17510;SDS011;8873;48.818;9.422;2022-09-12T10:04:15;3.63;;;2.30;;
17510;SDS011;8873;48.818;9.422;2022-09-12T10:06:45;2.50;;;2.40;;
17510;SDS011;8873;48.818;9.422;2022-09-12T10:09:22;2.67;;;2.47;;
17510;SDS011;8873;48.818;9.422;2022-09-12T10:11:50;2.55;;;2.45;;
17510;SDS011;8873;48.818;9.422;2022-09-12T10:14:28;2.67;;;2.45;;
17510;SDS011;8873;48.818;9.422;2022-09-12T10:16:57;2.53;;;2.42;;
17510;SDS011;8873;48.818;9.422;2022-09-12T10:19:32;2.50;;;2.40;;
17510;SDS011;8873;48.818;9.422;2022-09-12T10:22:02;2.33;;;2.10;;
17510;SDS011;8873;48.818;9.422;2022-09-12T10:24:31;2.30;;;2.20;;
17510;SDS011;8873;48.818;9.422;2022-09-12T10:27:05;4.53;;;2.33;;
17510;SDS011;8873;48.818;9.422;2022-09-12T10:29:34;2.80;;;2.60;;
17510;SDS011;8873;48.818;9.422;2022-09-12T10:32:03;3.17;;;2.40;;
17510;SDS011;8873;48.818;9.422;2022-09-12T10:34:33;2.60;;;2.50;;
17510;SDS011;8873;48.818;9.422;2022-09-12T10:37:03;2.95;;;2.75;;
17510;SDS011;8873;48.818;9.422;2022-09-12T10:39:31;3.67;;;2.40;;
17510;SDS011;8873;48.818;9.422;2022-09-12T10:42:01;3.08;;;2.88;;
17510;SDS011;8873;48.818;9.422;2022-09-12T10:44:31;2.75;;;2.10;;
17510;SDS011;8873;48.818;9.422;2022-09-12T10:46:59;2.30;;;2.20;;
17510;SDS011;8873;48.818;9.422;2022-09-12T10:49:34;2.70;;;2.50;;
17510;SDS011;8873;48.818;9.422;2022-09-12T10:52:16;2.60;;;2.50;;
17510;SDS011;8873;48.818;9.422;2022-09-12T10:54:44;2.60;;;2.50;;
17510;SDS011;8873;48.818;9.422;2022-09-12T11:00:07;2.70;;;2.60;;
17510;SDS011;8873;48.818;9.422;2022-09-12T11:02:42;2.33;;;2.20;;
17510;SDS011;8873;48.818;9.422;2022-09-12T11:05:16;2.30;;;2.20;;
17510;SDS011;8873;48.818;9.422;2022-09-12T11:07:49;3.53;;;2.00;;
17510;SDS011;8873;48.818;9.422;2022-09-12T11:10:23;2.45;;;2.00;;
17510;SDS011;8873;48.818;9.422;2022-09-12T11:13:02;2.28;;;2.08;;
17510;SDS011;8873;48.818;9.422;2022-09-12T11:15:37;2.50;;;2.30;;
17510;SDS011;8873;48.818;9.422;2022-09-12T11:18:13;2.38;;;2.28;;
17510;SDS011;8873;48.818;9.422;2022-09-12T11:20:52;2.92;;;2.00;;
17510;SDS011;8873;48.818;9.422;2022-09-12T11:23:30;1.95;;;1.90;;
17510;SDS011;8873;48.818;9.422;2022-09-12T11:26:05;1.88;;;1.77;;
17510;SDS011;8873;48.818;9.422;2022-09-12T11:28:41;1.95;;;1.85;;
17510;SDS011;8873;48.818;9.422;2022-09-12T11:31:16;2.20;;;2.10;;
17510;SDS011;8873;48.818;9.422;2022-09-12T11:33:51;2.67;;;1.90;;
17510;SDS011;8873;48.818;9.422;2022-09-12T11:36:35;3.72;;;2.10;;
17510;SDS011;8873;48.818;9.422;2022-09-12T11:39:09;2.30;;;2.20;;
17510;SDS011;8873;48.818;9.422;2022-09-12T11:41:39;1.90;;;1.80;;
17510;SDS011;8873;48.818;9.422;2022-09-12T11:44:10;1.95;;;1.90;;
17510;SDS011;8873;48.818;9.422;2022-09-12T11:46:39;1.83;;;1.73;;
17510;SDS011;8873;48.818;9.422;2022-09-12T11:49:18;1.85;;;1.83;;
17510;SDS011;8873;48.818;9.422;2022-09-12T11:51:48;1.83;;;1.83;;
17510;SDS011;8873;48.818;9.422;2022-09-12T11:54:20;2.50;;;1.77;;
17510;SDS011;8873;48.818;9.422;2022-09-12T11:56:49;1.92;;;1.83;;
17510;SDS011;8873;48.818;9.422;2022-09-12T11:59:24;1.90;;;1.80;;
17510;SDS011;8873;48.818;9.422;2022-09-12T12:01:56;2.97;;;1.95;;
17510;SDS011;8873;48.818;9.422;2022-09-12T12:04:27;1.63;;;1.63;;
17510;SDS011;8873;48.818;9.422;2022-09-12T12:06:58;1.95;;;1.85;;
17510;SDS011;8873;48.818;9.422;2022-09-12T12:09:29;2.08;;;1.98;;
17510;SDS011;8873;48.818;9.422;2022-09-12T12:11:57;1.70;;;1.70;;
17510;SDS011;8873;48.818;9.422;2022-09-12T12:14:28;1.95;;;1.63;;
17510;SDS011;8873;48.818;9.422;2022-09-12T12:16:58;3.28;;;1.80;;
17510;SDS011;8873;48.818;9.422;2022-09-12T12:19:30;1.90;;;1.80;;
17510;SDS011;8873;48.818;9.422;2022-09-12T12:22:06;2.00;;;1.90;;
17510;SDS011;8873;48.818;9.422;2022-09-12T12:24:37;1.80;;;1.70;;
17510;SDS011;8873;48.818;9.422;2022-09-12T12:27:23;1.60;;;1.60;;
17510;SDS011;8873;48.818;9.422;2022-09-12T12:29:51;1.60;;;1.60;;
17510;SDS011;8873;48.818;9.422;2022-09-12T12:32:22;1.75;;;1.50;;
17510;SDS011;8873;48.818;9.422;2022-09-12T12:34:50;1.60;;;1.60;;
17510;SDS011;8873;48.818;9.422;2022-09-12T12:40:20;1.83;;;1.50;;
17510;SDS011;8873;48.818;9.422;2022-09-12T12:42:58;1.55;;;1.45;;
17510;SDS011;8873;48.818;9.422;2022-09-12T12:48:13;1.45;;;1.45;;
17510;SDS011;8873;48.818;9.422;2022-09-12T12:50:41;1.65;;;1.40;;
17510;SDS011;8873;48.818;9.422;2022-09-12T12:53:15;1.38;;;1.38;;
17510;SDS011;8873;48.818;9.422;2022-09-12T12:55:46;1.60;;;1.50;;
17510;SDS011;8873;48.818;9.422;2022-09-12T12:58:27;1.73;;;1.63;;
17510;SDS011;8873;48.818;9.422;2022-09-12T13:01:08;1.50;;;1.40;;
17510;SDS011;8873;48.818;9.422;2022-09-12T13:03:38;1.50;;;1.50;;
17510;SDS011;8873;48.818;9.422;2022-09-12T13:06:07;1.23;;;1.23;;
17510;SDS011;8873;48.818;9.422;2022-09-12T13:08:35;1.70;;;1.60;;
17510;SDS011;8873;48.818;9.422;2022-09-12T13:11:07;1.55;;;1.55;;
17510;SDS011;8873;48.818;9.422;2022-09-12T13:13:36;1.33;;;1.33;;
17510;SDS011;8873;48.818;9.422;2022-09-12T13:16:05;1.55;;;1.55;;
17510;SDS011;8873;48.818;9.422;2022-09-12T13:18:37;1.73;;;1.33;;
17510;SDS011;8873;48.818;9.422;2022-09-12T13:21:08;1.42;;;1.30;;
17510;SDS011;8873;48.818;9.422;2022-09-12T13:23:36;1.50;;;1.35;;
17510;SDS011;8873;48.818;9.422;2022-09-12T13:26:09;1.65;;;1.55;;
17510;SDS011;8873;48.818;9.422;2022-09-12T13:28:37;1.40;;;1.40;;
17510;SDS011;8873;48.818;9.422;2022-09-12T13:31:07;1.60;;;1.50;;
17510;SDS011;8873;48.818;9.422;2022-09-12T13:33:38;1.40;;;1.40;;
17510;SDS011;8873;48.818;9.422;2022-09-12T13:36:21;1.90;;;1.58;;
17510;SDS011;8873;48.818;9.422;2022-09-12T13:38:56;3.17;;;1.83;;
17510;SDS011;8873;48.818;9.422;2022-09-12T13:41:35;1.65;;;1.60;;
17510;SDS011;8873;48.818;9.422;2022-09-12T13:44:07;3.05;;;1.70;;
17510;SDS011;8873;48.818;9.422;2022-09-12T13:46:35;1.60;;;1.50;;
17510;SDS011;8873;48.818;9.422;2022-09-12T13:49:05;1.60;;;1.60;;
17510;SDS011;8873;48.818;9.422;2022-09-12T13:51:35;1.70;;;1.60;;
17510;SDS011;8873;48.818;9.422;2022-09-12T13:54:02;1.60;;;1.50;;
17510;SDS011;8873;48.818;9.422;2022-09-12T13:56:32;1.40;;;1.40;;
17510;SDS011;8873;48.818;9.422;2022-09-12T13:59:00;2.28;;;1.65;;
17510;SDS011;8873;48.818;9.422;2022-09-12T14:01:37;1.90;;;1.80;;
17510;SDS011;8873;48.818;9.422;2022-09-12T14:04:09;1.70;;;1.70;;
17510;SDS011;8873;48.818;9.422;2022-09-12T14:06:58;1.70;;;1.60;;
17510;SDS011;8873;48.818;9.422;2022-09-12T14:09:27;3.03;;;1.60;;
17510;SDS011;8873;48.818;9.422;2022-09-12T14:11:58;1.90;;;1.80;;
17510;SDS011;8873;48.818;9.422;2022-09-12T14:14:26;1.80;;;1.80;;
17510;SDS011;8873;48.818;9.422;2022-09-12T14:16:56;1.70;;;1.60;;
17510;SDS011;8873;48.818;9.422;2022-09-12T14:19:24;1.83;;;1.80;;
17510;SDS011;8873;48.818;9.422;2022-09-12T14:21:52;1.83;;;1.73;;
17510;SDS011;8873;48.818;9.422;2022-09-12T14:24:20;2.15;;;1.83;;
17510;SDS011;8873;48.818;9.422;2022-09-12T14:26:50;1.77;;;1.70;;
17510;SDS011;8873;48.818;9.422;2022-09-12T14:29:19;1.80;;;1.80;;
17510;SDS011;8873;48.818;9.422;2022-09-12T14:31:49;2.67;;;2.03;;
17510;SDS011;8873;48.818;9.422;2022-09-12T14:34:26;2.50;;;2.25;;
17510;SDS011;8873;48.818;9.422;2022-09-12T14:36:53;2.25;;;1.92;;
17510;SDS011;8873;48.818;9.422;2022-09-12T14:39:23;1.67;;;1.67;;
17510;SDS011;8873;48.818;9.422;2022-09-12T14:41:59;2.17;;;1.88;;
17510;SDS011;8873;48.818;9.422;2022-09-12T14:44:30;1.85;;;1.75;;
17510;SDS011;8873;48.818;9.422;2022-09-12T14:46:58;1.95;;;1.85;;
17510;SDS011;8873;48.818;9.422;2022-09-12T14:49:29;1.80;;;1.75;;
17510;SDS011;8873;48.818;9.422;2022-09-12T14:51:58;1.67;;;1.67;;
17510;SDS011;8873;48.818;9.422;2022-09-12T14:54:36;4.13;;;1.70;;
17510;SDS011;8873;48.818;9.422;2022-09-12T14:57:05;2.00;;;1.65;;
17510;SDS011;8873;48.818;9.422;2022-09-12T14:59:38;1.70;;;1.65;;
17510;SDS011;8873;48.818;9.422;2022-09-12T15:02:21;1.90;;;1.80;;
17510;SDS011;8873;48.818;9.422;2022-09-12T15:04:51;1.80;;;1.80;;
17510;SDS011;8873;48.818;9.422;2022-09-12T15:07:24;2.15;;;1.70;;
17510;SDS011;8873;48.818;9.422;2022-09-12T15:09:54;2.20;;;1.90;;
17510;SDS011;8873;48.818;9.422;2022-09-12T15:12:22;1.90;;;1.80;;
17510;SDS011;8873;48.818;9.422;2022-09-12T15:14:51;1.88;;;1.75;;
17510;SDS011;8873;48.818;9.422;2022-09-12T15:17:18;3.85;;;1.60;;
17510;SDS011;8873;48.818;9.422;2022-09-12T15:19:46;1.92;;;1.70;;